Thunderstorms From: 26-05-2018 21:24 Until: 27-05-2018 15:00 warning for: Thunderstorms Level: Yellow info button

Although rather usual in this region, locally or potentially dangerous phenomena are expected. (such as local winds, summer thunderstorms, rising streams or high waves) Be aware and pay attention to the latest weather updates, especially if you carry out activities exposed to weather or close to a stream or shoreline. 


Meteo18 Weather Cam more information Meteo18 Weather Cam


warning for Thunderstorms more information blitzortung!


Rain radar more information rain snow radar


Visit our other weather sites:

Template documentation
and downloads

And another site



Weather Underground History page Text

Daily Summary for May 29, 2016 Units:  Metric    English   Both
« Previous Day
Next Day »
Daily Weekly Monthly Yearly Custom
  High: Low: Average:
Temperature: -17.8 °C -10.1 °C -8.8 °C
Dew Point: -17.8 °C -10.6 °C -9.8 °C
Humidity: Humidity % 74 % 90 %
Wind Speed: 0 km/h 0 km/h 1.1 km/h
Wind Gust: 0 km/h - -
Wind:- - South
Pressure: 0 hPa 34039.5 hPa -
Precipitation: 12.7 mm    
Historical Graphs
 
 
Tabular Data for May 29, 2016
Time Temperature Dew Point Pressure Wind Wind Speed Wind Gust Humidity Rainfall Rate (Hourly)
-17.8 °C -17.8 °C 0 hPa Calm     Humidity % 0 mm
00:02 -9 °C -9.8 °C 34130.9 hPa Calm   7.7 km/h 91 % 0 mm
00:17 -8.8 °C -9.7 °C 34120.7 hPa Calm   5.1 km/h 90 % 0 mm
00:22 -8.8 °C -9.7 °C 34120.7 hPa Calm   2.6 km/h 90 % 0 mm
00:32 -8.8 °C -9.6 °C 34107.2 hPa Calm   2.6 km/h 91 % 0 mm
00:42 -8.7 °C -9.4 °C 34107.2 hPa Calm   7.7 km/h 92 % 0 mm
00:52 -8.7 °C -9.6 °C 34097 hPa Calm   10.3 km/h 91 % 0 mm
00:57 -8.8 °C -9.5 °C 34097 hPa Calm   10.3 km/h 92 % 0 mm
01:02 -8.8 °C -9.6 °C 34097 hPa Calm   7.7 km/h 92 % 0 mm
01:12 -8.9 °C -9.7 °C 34097 hPa Calm   7.7 km/h 92 % 0 mm
01:17 -8.9 °C -9.7 °C 34107.2 hPa Calm   7.7 km/h 92 % 0 mm
01:32 -9.1 °C -9.7 °C 34107.2 hPa Calm   5.1 km/h 93 % 0 mm
01:37 -9.2 °C -9.9 °C 34107.2 hPa Calm   5.1 km/h 92 % 0 mm
01:42 -9.3 °C -10.1 °C 34097 hPa Calm   5.1 km/h 91 % 0 mm
01:52 -9.4 °C -10.1 °C 34086.9 hPa Calm   2.6 km/h 92 % 0 mm
01:57 -9.4 °C -10.3 °C 34086.9 hPa Calm   2.6 km/h 91 % 0 mm
02:02 -9.4 °C -10.2 °C 34086.9 hPa Calm   2.6 km/h 92 % 0 mm
02:12 -9.4 °C -10.2 °C 34086.9 hPa Calm   2.6 km/h 92 % 0 mm
02:17 -9.4 °C -10.2 °C 34086.9 hPa Calm     92 % 0 mm
02:22 -9.4 °C -10.1 °C 34086.9 hPa Calm     92 % 0 mm
02:32 -9.4 °C -10.1 °C 34086.9 hPa Calm     92 % 0 mm
02:42 -9.6 °C -10.3 °C 34073.3 hPa Calm     92 % 0 mm
02:47 -9.6 °C -10.3 °C 34073.3 hPa Calm   2.6 km/h 92 % 0 mm
02:52 -9.7 °C -10.3 °C 34073.3 hPa Calm   2.6 km/h 93 % 0 mm
02:57 -9.7 °C -10.3 °C 34073.3 hPa Calm   2.6 km/h 93 % 0 mm
03:02 -9.8 °C -10.4 °C 34073.3 hPa Calm     93 % 0 mm
03:12 -9.8 °C -10.4 °C 34073.3 hPa Calm     93 % 0 mm
03:17 -9.8 °C -10.4 °C 34073.3 hPa Calm     94 % 0 mm
03:22 -9.8 °C -10.4 °C 34086.9 hPa Calm     94 % 0 mm
03:27 -9.9 °C -10.4 °C 34073.3 hPa Calm     94 % 0 mm
03:37 -9.9 °C -10.5 °C 34073.3 hPa Calm     94 % 0 mm
03:42 -9.9 °C -10.4 °C 34073.3 hPa Calm     95 % 0 mm
03:52 -9.9 °C -10.4 °C 34063.2 hPa Calm     95 % 0 mm
04:02 -10 °C -10.4 °C 34063.2 hPa Calm     95 % 0 mm
04:12 -10 °C -10.4 °C 34063.2 hPa Calm     95 % 0 mm
04:22 -9.9 °C -10.3 °C 34073.3 hPa Calm     96 % 0 mm
04:27 -9.9 °C -10.3 °C 34073.3 hPa Calm     96 % 0 mm
04:32 -9.9 °C -10.4 °C 34073.3 hPa Calm     95 % 0 mm
04:42 -9.9 °C -10.2 °C 34063.2 hPa Calm     96 % 0 mm
04:47 -9.9 °C -10.2 °C 34063.2 hPa Calm     96 % 0 mm
04:52 -9.9 °C -10.2 °C 34063.2 hPa Calm     96 % 0 mm
04:57 -9.9 °C -10.3 °C 34063.2 hPa Calm     95 % 0 mm
05:02 -9.9 °C -10.3 °C 34063.2 hPa Calm     95 % 0 mm
05:07 -9.8 °C -10.2 °C 34063.2 hPa Calm     96 % 0 mm
05:12 -9.8 °C -10.3 °C 34063.2 hPa Calm     95 % 0 mm
05:17 -9.8 °C -10.2 °C 34063.2 hPa Calm     95 % 0 mm
05:22 -9.8 °C -10.2 °C 34063.2 hPa Calm     95 % 0 mm
05:32 -9.7 °C -10.2 °C 34063.2 hPa Calm     95 % 0 mm
05:37 -9.7 °C -10.2 °C 34049.6 hPa Calm     95 % 0 mm
05:42 -9.7 °C -10.2 °C 34049.6 hPa Calm     95 % 0 mm
05:47 -9.7 °C -10.2 °C 34049.6 hPa Calm     95 % 0 mm
05:52 -9.8 °C -10.2 °C 34049.6 hPa Calm     95 % 0 mm
06:02 -9.8 °C -10.2 °C 34049.6 hPa Calm     95 % 0 mm
06:12 -9.9 °C -10.5 °C 34049.6 hPa Calm     94 % 0 mm
06:17 -10 °C -10.6 °C 34039.5 hPa Calm     94 % 0 mm
06:22 -10.1 °C -10.5 °C 34049.6 hPa Calm     95 % 0 mm
06:32 -10.1 °C -10.6 °C 34049.6 hPa Calm     95 % 0 mm
06:42 -10.1 °C -10.5 °C 34049.6 hPa Calm     95 % 0 mm
06:47 -9.9 °C -10.3 °C 34049.6 hPa Calm     96 % 0 mm
07:02 -9.8 °C -10.2 °C 34049.6 hPa Calm     96 % 0 mm
07:12 -9.8 °C -10.2 °C 34049.6 hPa Calm   5.1 km/h 95 % 0 mm
07:17 -9.7 °C -10.2 °C 34049.6 hPa Calm   5.1 km/h 95 % 0 mm
07:22 -9.7 °C -10.1 °C 34049.6 hPa Calm   2.6 km/h 95 % 0 mm
07:32 -9.6 °C -10 °C 34049.6 hPa Calm   2.6 km/h 95 % 0 mm
07:37 -9.5 °C -9.9 °C 34049.6 hPa Calm   2.6 km/h 95 % 0 mm
07:42 -9.4 °C -9.8 °C 34049.6 hPa Calm   2.6 km/h 95 % 0 mm
07:47 -9.3 °C -9.8 °C 34049.6 hPa Calm     94 % 0 mm
07:52 -9.2 °C -9.8 °C 34049.6 hPa Calm     93 % 0 mm
07:57 -9.2 °C -9.8 °C 34049.6 hPa Calm     94 % 0 mm
08:02 -9.2 °C -9.8 °C 34049.6 hPa Calm   2.6 km/h 94 % 0 mm
08:12 -9.3 °C -9.9 °C 34049.6 hPa Calm   5.1 km/h 93 % 0 mm
08:17 -9.3 °C -9.8 °C 34049.6 hPa SW 2.6 km/h 7.7 km/h 94 % 0 mm
08:32 -9.2 °C -9.8 °C 34049.6 hPa Calm   10.3 km/h 93 % 0 mm
08:42 -9.2 °C -9.8 °C 34049.6 hPa Calm   10.3 km/h 93 % 0 mm
08:47 -9.1 °C -9.8 °C 34049.6 hPa Calm   10.3 km/h 92 % 0 mm
08:52 -9.1 °C -9.8 °C 34049.6 hPa WSW 5.1 km/h 10.3 km/h 92 % 0 mm
09:02 -9.3 °C -10 °C 34063.2 hPa Calm   7.7 km/h 92 % 0 mm
09:12 -9.3 °C -10.1 °C 34063.2 hPa Calm   7.7 km/h 92 % 0 mm
09:17 -9.4 °C -10.1 °C 34063.2 hPa Calm   7.7 km/h 92 % 0 mm
09:22 -9.4 °C -10 °C 34063.2 hPa Calm   5.1 km/h 93 % 0 mm
09:32 -9.3 °C -9.9 °C 34063.2 hPa WSW 2.6 km/h 5.1 km/h 93 % 0 mm
09:42 -9.2 °C -9.9 °C 34063.2 hPa SW 2.6 km/h 5.1 km/h 92 % 0 mm
09:52 -9.2 °C -10 °C 34063.2 hPa WSW 5.1 km/h 10.3 km/h 91 % 0 mm
09:57 -9.3 °C -10.1 °C 34063.2 hPa Calm   10.3 km/h 91 % 0 mm
10:12 -9.4 °C -10.1 °C 34063.2 hPa Calm   10.3 km/h 92 % 0 mm
10:17 -9.4 °C -10.1 °C 34063.2 hPa SW 5.1 km/h 10.3 km/h 92 % 0 mm
10:22 -9.4 °C -10 °C 34063.2 hPa Calm   10.3 km/h 93 % 0 mm
10:32 -9.3 °C -9.9 °C 34063.2 hPa Calm   5.1 km/h 93 % 0 mm
10:37 -9.3 °C -9.9 °C 34063.2 hPa Calm   5.1 km/h 93 % 0 mm
10:42 -9.2 °C -9.8 °C 34063.2 hPa Calm   5.1 km/h 93 % 0 mm
10:47 -9.1 °C -9.7 °C 34063.2 hPa Calm   2.6 km/h 93 % 0 mm
10:52 -9.1 °C -9.8 °C 34063.2 hPa Calm     92 % 0 mm
10:57 -9.1 °C -9.8 °C 34073.3 hPa Calm     92 % 0 mm
11:02 -9.1 °C -9.8 °C 34073.3 hPa Calm     92 % 0 mm
11:12 -9.1 °C -9.8 °C 34073.3 hPa Calm     92 % 0 mm
11:17 -9.1 °C -9.8 °C 34073.3 hPa SW 2.6 km/h 7.7 km/h 92 % 0 mm
11:22 -9.2 °C -9.9 °C 34073.3 hPa WSW 2.6 km/h 7.7 km/h 92 % 0 mm
11:27 -9.2 °C -9.9 °C 34073.3 hPa West 2.6 km/h 7.7 km/h 92 % 0 mm
11:32 -9.2 °C -9.9 °C 34073.3 hPa SW 2.6 km/h 15.6 km/h 92 % 0 mm
11:37 -9.1 °C -9.8 °C 34073.3 hPa SW 5.1 km/h 15.6 km/h 92 % 0 mm
11:42 -9.2 °C -9.9 °C 34073.3 hPa Calm   15.6 km/h 92 % 0 mm
11:47 -9.1 °C -9.8 °C 34073.3 hPa SW 7.7 km/h 15.6 km/h 92 % 0 mm
11:52 -9.1 °C -9.8 °C 34073.3 hPa SW 12.9 km/h 18.2 km/h 92 % 0 mm
11:57 -9.1 °C -9.8 °C 34073.3 hPa WSW 2.6 km/h 18.2 km/h 92 % 0 mm
12:02 -9.1 °C -9.9 °C 34073.3 hPa WNW 2.6 km/h 18.2 km/h 91 % 0 mm
12:07 -9.1 °C -9.9 °C 34073.3 hPa WSW 5.1 km/h 12.9 km/h 91 % 0 mm
12:12 -8.9 °C -9.7 °C 34073.3 hPa West 2.6 km/h 12.9 km/h 92 % 0 mm
12:17 -8.9 °C -9.7 °C 34073.3 hPa SW 10.3 km/h 12.9 km/h 91 % 0 mm
12:22 -8.7 °C -9.6 °C 34073.3 hPa SW 2.6 km/h 15.6 km/h 91 % 0 mm
12:32 -8.5 °C -9.6 °C 34073.3 hPa SW 10.3 km/h 15.6 km/h 88 % 0 mm
12:42 -8.7 °C -9.7 °C 34073.3 hPa SW 5.1 km/h 12.9 km/h 89 % 0 mm
12:47 -8.7 °C -9.6 °C 34073.3 hPa SW 10.3 km/h 12.9 km/h 90 % 0 mm
12:52 -8.8 °C -9.7 °C 34073.3 hPa WSW 2.6 km/h 12.9 km/h 90 % 0 mm
12:57 -8.9 °C -9.8 °C 34073.3 hPa SW 7.7 km/h 12.9 km/h 91 % 0 mm
13:02 -9.1 °C -9.8 °C 34073.3 hPa WSW 7.7 km/h 12.9 km/h 92 % 0 mm
13:07 -9.1 °C -9.7 °C 34073.3 hPa SW 2.6 km/h 12.9 km/h 93 % 0 mm
13:12 -9.1 °C -9.7 °C 34073.3 hPa Calm   12.9 km/h 93 % 0 mm
13:17 -8.9 °C -9.5 °C 34073.3 hPa Calm   12.9 km/h 94 % 7.62 mm
13:22 -8.8 °C -9.4 °C 34073.3 hPa SW 2.6 km/h 12.9 km/h 93 % 7.62 mm
13:27 -8.7 °C -9.3 °C 34073.3 hPa WSW 7.7 km/h 15.6 km/h 93 % 7.62 mm
13:32 -8.4 °C -9 °C 34063.2 hPa WSW 2.6 km/h 15.6 km/h 94 % 7.62 mm
13:37 -8.2 °C -8.9 °C 34073.3 hPa SSE 2.6 km/h 15.6 km/h 92 % 7.62 mm
13:42 -8.1 °C -9.1 °C 34073.3 hPa SW 2.6 km/h 15.6 km/h 90 % 7.62 mm
13:47 -8 °C -9.1 °C 34073.3 hPa SW 5.1 km/h 15.6 km/h 88 % 7.62 mm
13:52 -7.7 °C -8.7 °C 34073.3 hPa Calm   12.9 km/h 90 % 7.62 mm
13:57 -7.4 °C -8.7 °C 34073.3 hPa SSW 2.6 km/h 10.3 km/h 86 % 7.62 mm
14:02 -7.3 °C -9 °C 34073.3 hPa SW 2.6 km/h 10.3 km/h 82 % 7.62 mm
14:12 -7.1 °C -8.9 °C 34073.3 hPa Calm   10.3 km/h 81 % 7.62 mm
14:17 -7.3 °C -9 °C 34073.3 hPa Calm   10.3 km/h 82 % 0 mm
14:22 -7.3 °C -8.8 °C 34073.3 hPa NNE 5.1 km/h 10.3 km/h 84 % 0 mm
14:27 -7.4 °C -9 °C 34073.3 hPa Calm   10.3 km/h 84 % 0 mm
14:32 -7.4 °C -9 °C 34073.3 hPa Calm   10.3 km/h 84 % 0 mm
14:37 -7.3 °C -8.9 °C 34073.3 hPa East 2.6 km/h 10.3 km/h 83 % 0 mm
14:42 -7.3 °C -9.1 °C 34073.3 hPa South 2.6 km/h 10.3 km/h 82 % 0 mm
14:47 -7.3 °C -8.9 °C 34073.3 hPa NNE 7.7 km/h 10.3 km/h 83 % 0 mm
14:52 -7.3 °C -9.1 °C 34073.3 hPa NE 5.1 km/h 10.3 km/h 82 % 0 mm
14:57 -7.3 °C -9.1 °C 34073.3 hPa ENE 2.6 km/h 10.3 km/h 81 % 0 mm
15:02 -7.3 °C -9.2 °C 34073.3 hPa Calm   15.6 km/h 80 % 0 mm
15:07 -7.2 °C -9 °C 34073.3 hPa ENE 10.3 km/h 15.6 km/h 81 % 0 mm
15:12 -7.3 °C -9.3 °C 34073.3 hPa NE 5.1 km/h 12.9 km/h 79 % 0 mm
15:17 -7.3 °C -9.5 °C 34073.3 hPa Calm   12.9 km/h 78 % 0 mm
15:22 -7.3 °C -9.5 °C 34073.3 hPa Calm   12.9 km/h 78 % 0 mm
15:27 -7.3 °C -9.3 °C 34073.3 hPa Calm   12.9 km/h 80 % 0 mm
15:32 -7.3 °C -9.6 °C 34073.3 hPa Calm   12.9 km/h 77 % 0 mm
15:37 -7.2 °C -9.2 °C 34073.3 hPa Calm   7.7 km/h 79 % 0 mm
15:42 -7.1 °C -8.9 °C 34073.3 hPa Calm   7.7 km/h 81 % 0 mm
15:52 -6.9 °C -8.8 °C 34073.3 hPa Calm   5.1 km/h 80 % 0 mm
15:57 -6.9 °C -8.9 °C 34073.3 hPa Calm   5.1 km/h 79 % 0 mm
16:02 -6.9 °C -9.2 °C 34073.3 hPa Calm   5.1 km/h 77 % 0 mm
16:12 -6.9 °C -9.2 °C 34086.9 hPa Calm   5.1 km/h 77 % 0 mm
16:17 -6.8 °C -8.8 °C 34073.3 hPa Calm   5.1 km/h 79 % 0 mm
16:22 -6.7 °C -9.1 °C 34073.3 hPa Calm   5.1 km/h 77 % 0 mm
16:27 -6.6 °C -8.9 °C 34073.3 hPa Calm   5.1 km/h 77 % 0 mm
16:32 -6.6 °C -8.8 °C 34063.2 hPa Calm   5.1 km/h 78 % 0 mm
16:37 -6.4 °C -8.8 °C 34063.2 hPa SSW 2.6 km/h 7.7 km/h 77 % 0 mm
16:42 -6.4 °C -9.1 °C 34073.3 hPa Calm   7.7 km/h 74 % 0 mm
16:47 -6.4 °C -9.1 °C 34086.9 hPa Calm   7.7 km/h 74 % 0 mm
16:52 -6.5 °C -9.1 °C 34086.9 hPa SW 2.6 km/h 7.7 km/h 75 % 0 mm
16:57 -6.8 °C -9.2 °C 34086.9 hPa Calm   12.9 km/h 76 % 0 mm
17:02 -7.1 °C -9.3 °C 34086.9 hPa Calm   12.9 km/h 77 % 0 mm
17:07 -7.2 °C -9.2 °C 34086.9 hPa Calm   12.9 km/h 79 % 0 mm
17:12 -7.4 °C -9.4 °C 34086.9 hPa NE 7.7 km/h 10.3 km/h 79 % 0 mm
17:17 -7.7 °C -9.5 °C 34086.9 hPa NE 7.7 km/h 18.2 km/h 81 % 0 mm
17:22 -7.9 °C -9.6 °C 34086.9 hPa NNE 5.1 km/h 23.3 km/h 82 % 0 mm
17:32 -7.9 °C -9.6 °C 34097 hPa Calm   23.3 km/h 83 % 0 mm
17:37 -8 °C -9.5 °C 34097 hPa NE 2.6 km/h 15.6 km/h 84 % 0 mm
17:42 -8 °C -9.4 °C 34097 hPa NE 10.3 km/h 15.6 km/h 85 % 0 mm
17:47 -8.1 °C -9.4 °C 34097 hPa NE 5.1 km/h 20.8 km/h 86 % 0 mm
17:52 -8.2 °C -9.6 °C 34097 hPa NE 10.3 km/h 20.8 km/h 86 % 0 mm
17:57 -8.3 °C -9.4 °C 34097 hPa NE 5.1 km/h 20.8 km/h 88 % 0 mm
18:02 -8.2 °C -9.3 °C 34097 hPa NNE 5.1 km/h 20.8 km/h 88 % 0 mm
18:07 -8.2 °C -9.3 °C 34097 hPa Calm   12.9 km/h 88 % 0 mm
18:12 -8.3 °C -9.5 °C 34097 hPa Calm   10.3 km/h 87 % 0 mm
18:17 -8.2 °C -9.3 °C 34097 hPa Calm   10.3 km/h 88 % 0 mm
18:22 -8.2 °C -9.4 °C 34097 hPa Calm   10.3 km/h 87 % 0 mm
18:32 -8.1 °C -9.4 °C 34097 hPa Calm   7.7 km/h 86 % 0 mm
18:42 -8.1 °C -9.4 °C 34097 hPa Calm   5.1 km/h 86 % 0 mm
18:47 -8.1 °C -9.3 °C 34097 hPa Calm   5.1 km/h 87 % 0 mm
18:52 -8.1 °C -9.4 °C 34097 hPa Calm   5.1 km/h 86 % 0 mm
18:57 -8.2 °C -9.5 °C 34097 hPa Calm   5.1 km/h 86 % 0 mm
19:02 -8.2 °C -9.4 °C 34107.2 hPa Calm   5.1 km/h 87 % 0 mm
19:12 -8.3 °C -9.5 °C 34107.2 hPa SW 2.6 km/h 7.7 km/h 87 % 0 mm
19:17 -8.3 °C -9.5 °C 34107.2 hPa Calm   5.1 km/h 87 % 0 mm
19:22 -8.3 °C -9.4 °C 34107.2 hPa Calm   5.1 km/h 88 % 0 mm
19:27 -8.4 °C -9.5 °C 34107.2 hPa Calm   2.6 km/h 88 % 0 mm
19:32 -8.5 °C -9.6 °C 34107.2 hPa NE 2.6 km/h 2.6 km/h 88 % 0 mm
19:37 -8.6 °C -9.6 °C 34107.2 hPa Calm   5.1 km/h 89 % 0 mm
19:42 -8.6 °C -9.7 °C 34107.2 hPa Calm   5.1 km/h 88 % 0 mm
19:47 -8.6 °C -9.7 °C 34107.2 hPa West 2.6 km/h 5.1 km/h 88 % 0 mm
19:52 -8.6 °C -9.7 °C 34107.2 hPa Calm   5.1 km/h 88 % 0 mm
19:57 -8.6 °C -9.7 °C 34107.2 hPa Calm   2.6 km/h 88 % 0 mm
20:02 -8.6 °C -9.6 °C 34107.2 hPa Calm   2.6 km/h 89 % 0 mm
20:07 -8.7 °C -9.7 °C 34107.2 hPa Calm   2.6 km/h 89 % 0 mm
20:12 -8.7 °C -9.6 °C 34107.2 hPa Calm     90 % 0 mm
20:17 -8.7 °C -9.6 °C 34120.7 hPa Calm     90 % 0 mm
20:22 -8.7 °C -9.6 °C 34120.7 hPa Calm     90 % 0 mm
20:32 -8.7 °C -9.6 °C 34120.7 hPa Calm     90 % 0 mm
20:37 -8.7 °C -9.6 °C 34120.7 hPa Calm     91 % 0 mm
20:42 -8.8 °C -9.7 °C 34120.7 hPa Calm   5.1 km/h 90 % 0 mm
20:47 -8.9 °C -9.7 °C 34130.9 hPa Calm   5.1 km/h 91 % 7.62 mm
20:52 -8.9 °C -9.7 °C 34120.7 hPa Calm   5.1 km/h 92 % 7.62 mm
20:57 -9 °C -9.7 °C 34120.7 hPa SW 2.6 km/h 5.1 km/h 92 % 7.62 mm
21:02 -9.1 °C -9.7 °C 34120.7 hPa Calm   5.1 km/h 93 % 7.62 mm
21:07 -9.1 °C -9.7 °C 34120.7 hPa Calm   5.1 km/h 93 % 7.62 mm
21:12 -9.1 °C -9.7 °C 34120.7 hPa Calm   5.1 km/h 93 % 7.62 mm
21:17 -9.2 °C -9.8 °C 34130.9 hPa Calm   5.1 km/h 93 % 7.62 mm
21:22 -9.2 °C -9.8 °C 34130.9 hPa Calm   2.6 km/h 94 % 7.62 mm
21:27 -9.2 °C -9.8 °C 34130.9 hPa Calm   2.6 km/h 94 % 7.62 mm
21:32 -9.2 °C -9.8 °C 34130.9 hPa Calm   2.6 km/h 94 % 7.62 mm
21:37 -9.3 °C -9.8 °C 34130.9 hPa Calm   2.6 km/h 94 % 7.62 mm
21:42 -9.3 °C -9.8 °C 34130.9 hPa Calm   2.6 km/h 94 % 7.62 mm
21:47 -9.3 °C -9.8 °C 34130.9 hPa Calm   2.6 km/h 94 % 0 mm
21:52 -9.3 °C -9.8 °C 34130.9 hPa Calm   2.6 km/h 94 % 0 mm
21:57 -9.3 °C -9.8 °C 34130.9 hPa Calm   2.6 km/h 95 % 0 mm
22:02 -9.3 °C -9.8 °C 34130.9 hPa Calm   2.6 km/h 95 % 0 mm
22:07 -9.4 °C -9.8 °C 34144.4 hPa Calm     95 % 0 mm
22:12 -9.4 °C -9.8 °C 34144.4 hPa Calm     95 % 0 mm
22:17 -9.4 °C -9.8 °C 34144.4 hPa Calm     95 % 0 mm
22:22 -9.4 °C -9.9 °C 34144.4 hPa Calm     95 % 0 mm
22:27 -9.5 °C -9.9 °C 34144.4 hPa Calm     95 % 0 mm
22:32 -9.5 °C -9.9 °C 34144.4 hPa Calm     95 % 0 mm
22:37 -9.5 °C -9.9 °C 34144.4 hPa Calm     95 % 0 mm
22:42 -9.5 °C -9.9 °C 34144.4 hPa Calm     95 % 0 mm
22:52 -9.6 °C -10 °C 34144.4 hPa Calm     95 % 0 mm
22:57 -9.6 °C -10 °C 34144.4 hPa Calm     95 % 0 mm
23:02 -9.6 °C -10 °C 34144.4 hPa Calm     95 % 0 mm
23:12 -9.6 °C -10 °C 34144.4 hPa Calm     95 % 0 mm
23:17 -9.6 °C -10.1 °C 34144.4 hPa Calm     95 % 0 mm
23:22 -9.6 °C -10.1 °C 34144.4 hPa Calm     95 % 0 mm
23:27 -9.6 °C -10.1 °C 34144.4 hPa Calm     95 % 0 mm
23:32 -9.7 °C -10 °C 34144.4 hPa Calm     96 % 0 mm
23:37 -9.7 °C -10 °C 34144.4 hPa Calm     96 % 0 mm
23:42 -9.7 °C -10 °C 34144.4 hPa Calm     96 % 0 mm
23:47 -9.7 °C -10 °C 34144.4 hPa Calm     96 % 0 mm
23:52 -9.7 °C -10 °C 34144.4 hPa Calm     96 % 0 mm
23:57 -9.7 °C -10 °C 34144.4 hPa Calm     96 % 0 mm
Meteo18
Compliments of Weather Underground - 4 mb

Script developed by  Jim McMurry - jmcmurry@mwt.net Adapted for the template by  Wim van der Kuil - Leuven-Template.eu

You find our weather info also at:

European Weather Network

Weather Underground

Equipment we use:

Weather-station
Davis Vue

Weather-program
Meteobridge

Weather-server
Raspberry PI 2 B+

Provider
1 and 1

Davis Vue

Meteobridge

Raspberry PI 2 B+

1 and 1